sensor_id;sensor_type;location;lat;lon;timestamp;P1;durP1;ratioP1;P2;durP2;ratioP2
22812;SDS011;11573;51.334;3.244;2023-01-29T00:02:13;22.17;;;15.07;;
22812;SDS011;11573;51.334;3.244;2023-01-29T00:04:40;19.65;;;13.20;;
22812;SDS011;11573;51.334;3.244;2023-01-29T00:07:07;25.00;;;14.95;;
22812;SDS011;11573;51.334;3.244;2023-01-29T00:09:34;24.30;;;14.55;;
22812;SDS011;11573;51.334;3.244;2023-01-29T00:12:01;24.77;;;15.63;;
22812;SDS011;11573;51.334;3.244;2023-01-29T00:14:28;23.75;;;14.55;;
22812;SDS011;11573;51.334;3.244;2023-01-29T00:16:55;21.45;;;14.25;;
22812;SDS011;11573;51.334;3.244;2023-01-29T00:19:22;21.60;;;14.40;;
22812;SDS011;11573;51.334;3.244;2023-01-29T00:21:49;22.20;;;14.77;;
22812;SDS011;11573;51.334;3.244;2023-01-29T00:24:16;25.02;;;16.58;;
22812;SDS011;11573;51.334;3.244;2023-01-29T00:26:43;23.70;;;15.75;;
22812;SDS011;11573;51.334;3.244;2023-01-29T00:29:10;23.35;;;15.95;;
22812;SDS011;11573;51.334;3.244;2023-01-29T00:31:37;22.58;;;16.08;;
22812;SDS011;11573;51.334;3.244;2023-01-29T00:34:05;20.98;;;14.88;;
22812;SDS011;11573;51.334;3.244;2023-01-29T00:36:32;26.23;;;14.98;;
22812;SDS011;11573;51.334;3.244;2023-01-29T00:38:59;24.80;;;14.60;;
22812;SDS011;11573;51.334;3.244;2023-01-29T00:41:29;27.67;;;16.10;;
22812;SDS011;11573;51.334;3.244;2023-01-29T00:44:16;34.55;;;15.27;;
22812;SDS011;11573;51.334;3.244;2023-01-29T00:47:02;26.45;;;16.17;;
22812;SDS011;11573;51.334;3.244;2023-01-29T00:49:50;25.33;;;15.65;;
22812;SDS011;11573;51.334;3.244;2023-01-29T00:52:17;22.77;;;15.23;;
22812;SDS011;11573;51.334;3.244;2023-01-29T00:54:57;22.70;;;15.38;;
22812;SDS011;11573;51.334;3.244;2023-01-29T00:57:26;26.33;;;16.52;;
22812;SDS011;11573;51.334;3.244;2023-01-29T00:59:54;24.02;;;16.98;;
22812;SDS011;11573;51.334;3.244;2023-01-29T01:02:21;28.08;;;17.92;;
22812;SDS011;11573;51.334;3.244;2023-01-29T01:05:09;25.77;;;17.80;;
22812;SDS011;11573;51.334;3.244;2023-01-29T01:07:44;24.83;;;18.30;;
22812;SDS011;11573;51.334;3.244;2023-01-29T01:10:14;27.60;;;18.85;;
22812;SDS011;11573;51.334;3.244;2023-01-29T01:12:47;27.20;;;17.60;;
22812;SDS011;11573;51.334;3.244;2023-01-29T01:15:22;28.23;;;18.17;;
22812;SDS011;11573;51.334;3.244;2023-01-29T01:17:53;25.98;;;18.23;;
22812;SDS011;11573;51.334;3.244;2023-01-29T01:20:21;28.10;;;18.35;;
22812;SDS011;11573;51.334;3.244;2023-01-29T01:22:49;26.73;;;17.95;;
22812;SDS011;11573;51.334;3.244;2023-01-29T01:25:18;26.48;;;17.08;;
22812;SDS011;11573;51.334;3.244;2023-01-29T01:27:45;27.40;;;17.27;;
22812;SDS011;11573;51.334;3.244;2023-01-29T01:30:13;23.52;;;16.63;;
22812;SDS011;11573;51.334;3.244;2023-01-29T01:32:42;23.77;;;17.05;;
22812;SDS011;11573;51.334;3.244;2023-01-29T01:35:09;26.55;;;17.25;;
22812;SDS011;11573;51.334;3.244;2023-01-29T01:37:37;26.40;;;17.92;;
22812;SDS011;11573;51.334;3.244;2023-01-29T01:40:04;27.10;;;16.50;;
22812;SDS011;11573;51.334;3.244;2023-01-29T01:42:38;24.48;;;17.10;;
22812;SDS011;11573;51.334;3.244;2023-01-29T01:45:06;25.70;;;17.05;;
22812;SDS011;11573;51.334;3.244;2023-01-29T01:48:10;24.98;;;17.17;;
22812;SDS011;11573;51.334;3.244;2023-01-29T01:50:47;29.17;;;18.80;;
22812;SDS011;11573;51.334;3.244;2023-01-29T01:53:17;25.20;;;17.75;;
22812;SDS011;11573;51.334;3.244;2023-01-29T01:55:49;27.23;;;18.60;;
22812;SDS011;11573;51.334;3.244;2023-01-29T01:58:24;24.83;;;17.20;;
22812;SDS011;11573;51.334;3.244;2023-01-29T02:00:58;27.67;;;18.38;;
22812;SDS011;11573;51.334;3.244;2023-01-29T02:03:26;30.67;;;20.02;;
22812;SDS011;11573;51.334;3.244;2023-01-29T02:06:15;32.97;;;19.48;;
22812;SDS011;11573;51.334;3.244;2023-01-29T02:11:50;29.50;;;19.60;;
22812;SDS011;11573;51.334;3.244;2023-01-29T02:14:17;29.05;;;18.77;;
22812;SDS011;11573;51.334;3.244;2023-01-29T02:16:44;34.10;;;20.58;;
22812;SDS011;11573;51.334;3.244;2023-01-29T02:19:36;28.98;;;20.85;;
22812;SDS011;11573;51.334;3.244;2023-01-29T02:22:11;31.13;;;19.38;;
22812;SDS011;11573;51.334;3.244;2023-01-29T02:30:26;34.22;;;22.15;;
22812;SDS011;11573;51.334;3.244;2023-01-29T02:33:13;32.53;;;19.65;;
22812;SDS011;11573;51.334;3.244;2023-01-29T02:36:02;33.38;;;20.92;;
22812;SDS011;11573;51.334;3.244;2023-01-29T02:38:59;34.45;;;20.02;;
22812;SDS011;11573;51.334;3.244;2023-01-29T02:41:35;30.10;;;19.70;;
22812;SDS011;11573;51.334;3.244;2023-01-29T02:44:29;29.50;;;18.85;;
22812;SDS011;11573;51.334;3.244;2023-01-29T02:47:21;28.35;;;18.85;;
22812;SDS011;11573;51.334;3.244;2023-01-29T02:53:00;30.42;;;20.20;;
22812;SDS011;11573;51.334;3.244;2023-01-29T02:55:48;34.17;;;20.20;;
22812;SDS011;11573;51.334;3.244;2023-01-29T02:58:32;32.10;;;20.23;;
22812;SDS011;11573;51.334;3.244;2023-01-29T03:01:08;28.58;;;19.50;;
22812;SDS011;11573;51.334;3.244;2023-01-29T03:03:42;30.42;;;20.08;;
22812;SDS011;11573;51.334;3.244;2023-01-29T03:06:22;30.38;;;20.02;;
22812;SDS011;11573;51.334;3.244;2023-01-29T03:08:55;29.08;;;19.83;;
22812;SDS011;11573;51.334;3.244;2023-01-29T03:11:26;30.23;;;20.50;;
22812;SDS011;11573;51.334;3.244;2023-01-29T03:14:06;31.38;;;20.65;;
22812;SDS011;11573;51.334;3.244;2023-01-29T03:16:39;30.55;;;19.65;;
22812;SDS011;11573;51.334;3.244;2023-01-29T03:19:57;29.42;;;19.45;;
22812;SDS011;11573;51.334;3.244;2023-01-29T03:22:07;29.85;;;19.75;;
22812;SDS011;11573;51.334;3.244;2023-01-29T03:24:44;33.22;;;20.77;;
22812;SDS011;11573;51.334;3.244;2023-01-29T03:27:34;29.05;;;20.13;;
22812;SDS011;11573;51.334;3.244;2023-01-29T03:33:27;33.15;;;19.50;;
22812;SDS011;11573;51.334;3.244;2023-01-29T03:35:59;36.03;;;20.42;;
22812;SDS011;11573;51.334;3.244;2023-01-29T03:38:32;32.42;;;20.52;;
22812;SDS011;11573;51.334;3.244;2023-01-29T03:41:09;32.20;;;19.88;;
22812;SDS011;11573;51.334;3.244;2023-01-29T03:46:23;32.08;;;19.45;;
22812;SDS011;11573;51.334;3.244;2023-01-29T03:51:40;28.23;;;19.55;;
22812;SDS011;11573;51.334;3.244;2023-01-29T03:54:21;30.10;;;18.75;;
22812;SDS011;11573;51.334;3.244;2023-01-29T03:59:34;31.63;;;19.95;;
22812;SDS011;11573;51.334;3.244;2023-01-29T04:02:25;30.38;;;20.10;;
22812;SDS011;11573;51.334;3.244;2023-01-29T04:05:03;28.10;;;19.17;;
22812;SDS011;11573;51.334;3.244;2023-01-29T04:07:45;33.53;;;21.15;;
22812;SDS011;11573;51.334;3.244;2023-01-29T04:10:17;32.55;;;19.73;;
22812;SDS011;11573;51.334;3.244;2023-01-29T04:12:48;28.08;;;20.00;;
22812;SDS011;11573;51.334;3.244;2023-01-29T04:15:19;34.08;;;20.33;;
22812;SDS011;11573;51.334;3.244;2023-01-29T04:17:51;31.02;;;19.55;;
22812;SDS011;11573;51.334;3.244;2023-01-29T04:20:30;27.48;;;18.88;;
22812;SDS011;11573;51.334;3.244;2023-01-29T04:22:58;33.50;;;19.83;;
22812;SDS011;11573;51.334;3.244;2023-01-29T04:25:27;29.88;;;21.00;;
22812;SDS011;11573;51.334;3.244;2023-01-29T04:28:16;31.08;;;19.85;;
22812;SDS011;11573;51.334;3.244;2023-01-29T04:36:58;29.73;;;19.48;;
22812;SDS011;11573;51.334;3.244;2023-01-29T04:39:55;29.48;;;20.38;;
22812;SDS011;11573;51.334;3.244;2023-01-29T04:42:43;32.78;;;20.92;;
22812;SDS011;11573;51.334;3.244;2023-01-29T04:45:47;30.70;;;20.00;;
22812;SDS011;11573;51.334;3.244;2023-01-29T04:48:23;29.08;;;19.15;;
22812;SDS011;11573;51.334;3.244;2023-01-29T04:50:56;30.55;;;20.20;;
22812;SDS011;11573;51.334;3.244;2023-01-29T04:53:45;31.20;;;20.73;;
22812;SDS011;11573;51.334;3.244;2023-01-29T04:56:22;30.42;;;20.20;;
22812;SDS011;11573;51.334;3.244;2023-01-29T04:58:57;30.65;;;20.33;;
22812;SDS011;11573;51.334;3.244;2023-01-29T05:01:38;33.30;;;20.65;;
22812;SDS011;11573;51.334;3.244;2023-01-29T05:04:08;31.02;;;20.33;;
22812;SDS011;11573;51.334;3.244;2023-01-29T05:06:38;29.85;;;20.85;;
22812;SDS011;11573;51.334;3.244;2023-01-29T05:09:06;31.40;;;21.02;;
22812;SDS011;11573;51.334;3.244;2023-01-29T05:11:34;34.35;;;22.48;;
22812;SDS011;11573;51.334;3.244;2023-01-29T05:14:03;30.85;;;21.10;;
22812;SDS011;11573;51.334;3.244;2023-01-29T05:16:37;35.15;;;21.30;;
22812;SDS011;11573;51.334;3.244;2023-01-29T05:19:08;33.50;;;21.45;;
22812;SDS011;11573;51.334;3.244;2023-01-29T05:21:41;31.40;;;21.88;;
22812;SDS011;11573;51.334;3.244;2023-01-29T05:24:18;33.40;;;21.75;;
22812;SDS011;11573;51.334;3.244;2023-01-29T05:26:48;30.90;;;21.00;;
22812;SDS011;11573;51.334;3.244;2023-01-29T05:29:35;30.45;;;20.85;;
22812;SDS011;11573;51.334;3.244;2023-01-29T05:32:02;32.65;;;22.33;;
22812;SDS011;11573;51.334;3.244;2023-01-29T05:34:29;31.85;;;20.88;;
22812;SDS011;11573;51.334;3.244;2023-01-29T05:36:56;29.27;;;20.00;;
22812;SDS011;11573;51.334;3.244;2023-01-29T05:39:23;34.42;;;22.70;;
22812;SDS011;11573;51.334;3.244;2023-01-29T05:41:50;33.90;;;21.00;;
22812;SDS011;11573;51.334;3.244;2023-01-29T05:44:17;31.83;;;21.20;;
22812;SDS011;11573;51.334;3.244;2023-01-29T05:46:44;31.80;;;21.10;;
22812;SDS011;11573;51.334;3.244;2023-01-29T05:49:11;33.28;;;21.90;;
22812;SDS011;11573;51.334;3.244;2023-01-29T05:51:38;30.63;;;21.60;;
22812;SDS011;11573;51.334;3.244;2023-01-29T05:54:06;31.02;;;21.02;;
22812;SDS011;11573;51.334;3.244;2023-01-29T05:56:33;30.92;;;21.67;;
22812;SDS011;11573;51.334;3.244;2023-01-29T05:58:59;32.50;;;21.60;;
22812;SDS011;11573;51.334;3.244;2023-01-29T06:01:26;31.13;;;21.42;;
22812;SDS011;11573;51.334;3.244;2023-01-29T06:03:53;30.95;;;21.10;;
22812;SDS011;11573;51.334;3.244;2023-01-29T06:06:20;32.95;;;20.20;;
22812;SDS011;11573;51.334;3.244;2023-01-29T06:08:47;29.30;;;20.63;;
22812;SDS011;11573;51.334;3.244;2023-01-29T06:11:14;29.27;;;21.83;;
22812;SDS011;11573;51.334;3.244;2023-01-29T06:13:44;34.90;;;21.88;;
22812;SDS011;11573;51.334;3.244;2023-01-29T06:16:11;31.95;;;21.55;;
22812;SDS011;11573;51.334;3.244;2023-01-29T06:18:39;32.65;;;22.02;;
22812;SDS011;11573;51.334;3.244;2023-01-29T06:21:08;31.15;;;21.27;;
22812;SDS011;11573;51.334;3.244;2023-01-29T06:23:37;32.42;;;21.48;;
22812;SDS011;11573;51.334;3.244;2023-01-29T06:26:06;33.50;;;21.80;;
22812;SDS011;11573;51.334;3.244;2023-01-29T06:28:38;30.20;;;20.50;;
22812;SDS011;11573;51.334;3.244;2023-01-29T06:31:05;34.65;;;22.35;;
22812;SDS011;11573;51.334;3.244;2023-01-29T06:33:53;32.63;;;21.38;;
22812;SDS011;11573;51.334;3.244;2023-01-29T06:36:20;30.42;;;21.80;;
22812;SDS011;11573;51.334;3.244;2023-01-29T06:38:47;33.25;;;22.00;;
22812;SDS011;11573;51.334;3.244;2023-01-29T06:41:18;30.20;;;20.38;;
22812;SDS011;11573;51.334;3.244;2023-01-29T06:43:48;33.03;;;21.60;;
22812;SDS011;11573;51.334;3.244;2023-01-29T06:46:14;33.28;;;20.25;;
22812;SDS011;11573;51.334;3.244;2023-01-29T06:48:42;30.73;;;21.10;;
22812;SDS011;11573;51.334;3.244;2023-01-29T06:51:09;30.88;;;20.45;;
22812;SDS011;11573;51.334;3.244;2023-01-29T06:53:37;32.30;;;20.50;;
22812;SDS011;11573;51.334;3.244;2023-01-29T06:56:05;32.28;;;21.40;;
22812;SDS011;11573;51.334;3.244;2023-01-29T06:58:34;34.35;;;21.95;;
22812;SDS011;11573;51.334;3.244;2023-01-29T07:01:07;31.20;;;20.52;;
22812;SDS011;11573;51.334;3.244;2023-01-29T07:03:35;34.58;;;22.75;;
22812;SDS011;11573;51.334;3.244;2023-01-29T07:06:02;35.33;;;22.10;;
22812;SDS011;11573;51.334;3.244;2023-01-29T07:08:30;32.15;;;21.00;;
22812;SDS011;11573;51.334;3.244;2023-01-29T07:10:57;33.85;;;20.33;;
22812;SDS011;11573;51.334;3.244;2023-01-29T07:13:26;34.35;;;22.33;;
22812;SDS011;11573;51.334;3.244;2023-01-29T07:15:53;30.67;;;21.38;;
22812;SDS011;11573;51.334;3.244;2023-01-29T07:18:23;34.30;;;21.80;;
22812;SDS011;11573;51.334;3.244;2023-01-29T07:20:50;36.78;;;22.88;;
22812;SDS011;11573;51.334;3.244;2023-01-29T07:23:17;33.72;;;22.25;;
22812;SDS011;11573;51.334;3.244;2023-01-29T07:25:44;32.70;;;21.50;;
22812;SDS011;11573;51.334;3.244;2023-01-29T07:28:12;30.80;;;21.50;;
22812;SDS011;11573;51.334;3.244;2023-01-29T07:30:39;30.77;;;21.35;;
22812;SDS011;11573;51.334;3.244;2023-01-29T07:33:06;34.10;;;22.30;;
22812;SDS011;11573;51.334;3.244;2023-01-29T07:35:35;32.35;;;21.67;;
22812;SDS011;11573;51.334;3.244;2023-01-29T07:38:03;33.35;;;21.90;;
22812;SDS011;11573;51.334;3.244;2023-01-29T07:40:31;33.60;;;22.10;;
22812;SDS011;11573;51.334;3.244;2023-01-29T07:42:59;31.85;;;20.60;;
22812;SDS011;11573;51.334;3.244;2023-01-29T07:45:27;32.15;;;21.67;;
22812;SDS011;11573;51.334;3.244;2023-01-29T07:47:55;32.17;;;21.95;;
22812;SDS011;11573;51.334;3.244;2023-01-29T07:50:23;33.42;;;22.88;;
22812;SDS011;11573;51.334;3.244;2023-01-29T07:52:52;32.67;;;21.98;;
22812;SDS011;11573;51.334;3.244;2023-01-29T07:55:19;34.13;;;21.50;;
22812;SDS011;11573;51.334;3.244;2023-01-29T07:57:46;29.05;;;21.05;;
22812;SDS011;11573;51.334;3.244;2023-01-29T08:00:20;36.17;;;22.92;;
22812;SDS011;11573;51.334;3.244;2023-01-29T08:02:47;32.40;;;21.98;;
22812;SDS011;11573;51.334;3.244;2023-01-29T08:05:14;32.50;;;22.23;;
22812;SDS011;11573;51.334;3.244;2023-01-29T08:07:41;34.55;;;21.67;;
22812;SDS011;11573;51.334;3.244;2023-01-29T08:10:10;32.50;;;22.75;;
22812;SDS011;11573;51.334;3.244;2023-01-29T08:12:37;33.85;;;22.33;;
22812;SDS011;11573;51.334;3.244;2023-01-29T08:15:04;34.00;;;23.63;;
22812;SDS011;11573;51.334;3.244;2023-01-29T08:17:31;35.58;;;22.60;;
22812;SDS011;11573;51.334;3.244;2023-01-29T08:19:58;35.97;;;23.45;;
22812;SDS011;11573;51.334;3.244;2023-01-29T08:22:25;36.80;;;23.33;;
22812;SDS011;11573;51.334;3.244;2023-01-29T08:24:52;33.10;;;23.83;;
22812;SDS011;11573;51.334;3.244;2023-01-29T08:27:33;36.92;;;22.90;;
22812;SDS011;11573;51.334;3.244;2023-01-29T08:30:00;32.10;;;22.13;;
22812;SDS011;11573;51.334;3.244;2023-01-29T08:32:27;34.50;;;23.08;;
22812;SDS011;11573;51.334;3.244;2023-01-29T08:34:54;36.15;;;23.60;;
22812;SDS011;11573;51.334;3.244;2023-01-29T08:37:21;33.03;;;23.85;;
22812;SDS011;11573;51.334;3.244;2023-01-29T08:39:47;32.30;;;23.35;;
22812;SDS011;11573;51.334;3.244;2023-01-29T08:42:14;32.60;;;23.05;;
22812;SDS011;11573;51.334;3.244;2023-01-29T08:44:42;38.15;;;24.13;;
22812;SDS011;11573;51.334;3.244;2023-01-29T08:47:09;35.10;;;24.05;;
22812;SDS011;11573;51.334;3.244;2023-01-29T08:49:36;33.55;;;23.42;;
22812;SDS011;11573;51.334;3.244;2023-01-29T08:52:03;32.20;;;23.05;;
22812;SDS011;11573;51.334;3.244;2023-01-29T08:54:30;35.33;;;23.63;;
22812;SDS011;11573;51.334;3.244;2023-01-29T08:56:57;33.22;;;23.27;;
22812;SDS011;11573;51.334;3.244;2023-01-29T08:59:24;33.28;;;23.85;;
22812;SDS011;11573;51.334;3.244;2023-01-29T09:01:51;34.38;;;23.38;;
22812;SDS011;11573;51.334;3.244;2023-01-29T09:04:18;33.67;;;22.92;;
22812;SDS011;11573;51.334;3.244;2023-01-29T09:06:45;31.30;;;22.27;;
22812;SDS011;11573;51.334;3.244;2023-01-29T09:09:11;33.97;;;23.25;;
22812;SDS011;11573;51.334;3.244;2023-01-29T09:11:39;31.60;;;23.05;;
22812;SDS011;11573;51.334;3.244;2023-01-29T09:14:06;34.97;;;22.55;;
22812;SDS011;11573;51.334;3.244;2023-01-29T09:16:35;36.17;;;22.45;;
22812;SDS011;11573;51.334;3.244;2023-01-29T09:19:02;32.13;;;21.58;;
22812;SDS011;11573;51.334;3.244;2023-01-29T09:21:29;30.35;;;21.00;;
22812;SDS011;11573;51.334;3.244;2023-01-29T09:23:56;28.83;;;21.52;;
22812;SDS011;11573;51.334;3.244;2023-01-29T09:26:22;30.60;;;22.10;;
22812;SDS011;11573;51.334;3.244;2023-01-29T09:28:49;32.63;;;22.02;;
22812;SDS011;11573;51.334;3.244;2023-01-29T09:31:16;29.88;;;21.27;;
22812;SDS011;11573;51.334;3.244;2023-01-29T09:33:43;33.28;;;21.73;;
22812;SDS011;11573;51.334;3.244;2023-01-29T09:36:10;28.60;;;20.25;;
22812;SDS011;11573;51.334;3.244;2023-01-29T09:38:37;29.52;;;20.95;;
22812;SDS011;11573;51.334;3.244;2023-01-29T09:41:13;27.98;;;19.45;;
22812;SDS011;11573;51.334;3.244;2023-01-29T09:43:46;30.25;;;20.00;;
22812;SDS011;11573;51.334;3.244;2023-01-29T09:46:21;28.90;;;20.20;;
22812;SDS011;11573;51.334;3.244;2023-01-29T09:49:11;29.60;;;20.00;;
22812;SDS011;11573;51.334;3.244;2023-01-29T09:51:57;26.88;;;20.25;;
22812;SDS011;11573;51.334;3.244;2023-01-29T09:57:27;29.92;;;20.05;;
22812;SDS011;11573;51.334;3.244;2023-01-29T10:00:15;29.27;;;20.10;;
22812;SDS011;11573;51.334;3.244;2023-01-29T10:05:52;27.17;;;19.10;;
22812;SDS011;11573;51.334;3.244;2023-01-29T10:11:41;26.73;;;18.17;;
22812;SDS011;11573;51.334;3.244;2023-01-29T10:17:07;24.75;;;18.02;;
22812;SDS011;11573;51.334;3.244;2023-01-29T10:19:54;24.83;;;17.48;;
22812;SDS011;11573;51.334;3.244;2023-01-29T10:22:49;24.73;;;17.85;;
22812;SDS011;11573;51.334;3.244;2023-01-29T10:25:34;26.88;;;17.77;;
22812;SDS011;11573;51.334;3.244;2023-01-29T10:28:12;24.40;;;18.15;;
22812;SDS011;11573;51.334;3.244;2023-01-29T10:30:43;28.08;;;18.02;;
22812;SDS011;11573;51.334;3.244;2023-01-29T10:33:17;24.95;;;17.45;;
22812;SDS011;11573;51.334;3.244;2023-01-29T10:36:25;24.13;;;17.52;;
22812;SDS011;11573;51.334;3.244;2023-01-29T10:38:58;22.73;;;17.83;;
22812;SDS011;11573;51.334;3.244;2023-01-29T10:49:48;25.52;;;17.95;;
22812;SDS011;11573;51.334;3.244;2023-01-29T11:00:38;22.48;;;16.10;;
22812;SDS011;11573;51.334;3.244;2023-01-29T11:03:14;22.85;;;16.77;;
22812;SDS011;11573;51.334;3.244;2023-01-29T11:08:48;27.42;;;17.55;;
22812;SDS011;11573;51.334;3.244;2023-01-29T11:11:40;24.95;;;17.50;;
22812;SDS011;11573;51.334;3.244;2023-01-29T11:14:15;29.20;;;19.27;;
22812;SDS011;11573;51.334;3.244;2023-01-29T11:17:04;24.95;;;17.63;;
22812;SDS011;11573;51.334;3.244;2023-01-29T11:19:39;25.60;;;18.08;;
22812;SDS011;11573;51.334;3.244;2023-01-29T11:22:12;26.33;;;16.67;;
22812;SDS011;11573;51.334;3.244;2023-01-29T11:24:39;25.27;;;17.35;;
22812;SDS011;11573;51.334;3.244;2023-01-29T11:27:13;26.30;;;16.98;;
22812;SDS011;11573;51.334;3.244;2023-01-29T11:29:48;26.08;;;17.98;;
22812;SDS011;11573;51.334;3.244;2023-01-29T11:37:31;24.85;;;16.63;;
22812;SDS011;11573;51.334;3.244;2023-01-29T11:40:00;25.70;;;18.17;;
22812;SDS011;11573;51.334;3.244;2023-01-29T11:42:29;25.80;;;17.05;;
22812;SDS011;11573;51.334;3.244;2023-01-29T11:44:56;24.60;;;17.77;;
22812;SDS011;11573;51.334;3.244;2023-01-29T11:47:27;27.40;;;17.85;;
22812;SDS011;11573;51.334;3.244;2023-01-29T11:49:56;25.60;;;17.77;;
22812;SDS011;11573;51.334;3.244;2023-01-29T11:52:32;27.73;;;18.20;;
22812;SDS011;11573;51.334;3.244;2023-01-29T11:55:03;23.73;;;17.17;;
22812;SDS011;11573;51.334;3.244;2023-01-29T11:57:42;26.52;;;16.77;;
22812;SDS011;11573;51.334;3.244;2023-01-29T12:00:34;22.17;;;16.48;;
22812;SDS011;11573;51.334;3.244;2023-01-29T12:05:54;24.70;;;17.63;;
22812;SDS011;11573;51.334;3.244;2023-01-29T12:08:32;22.90;;;15.50;;
22812;SDS011;11573;51.334;3.244;2023-01-29T12:11:10;22.50;;;16.33;;
22812;SDS011;11573;51.334;3.244;2023-01-29T12:13:41;21.42;;;15.70;;
22812;SDS011;11573;51.334;3.244;2023-01-29T12:16:18;24.23;;;16.35;;
22812;SDS011;11573;51.334;3.244;2023-01-29T12:18:55;22.92;;;15.93;;
22812;SDS011;11573;51.334;3.244;2023-01-29T12:27:04;23.08;;;16.50;;
22812;SDS011;11573;51.334;3.244;2023-01-29T12:29:39;20.98;;;15.38;;
22812;SDS011;11573;51.334;3.244;2023-01-29T12:38:09;20.70;;;14.82;;
22812;SDS011;11573;51.334;3.244;2023-01-29T12:46:05;25.02;;;16.33;;
22812;SDS011;11573;51.334;3.244;2023-01-29T12:48:40;22.57;;;16.37;;
22812;SDS011;11573;51.334;3.244;2023-01-29T12:51:13;20.63;;;15.77;;
22812;SDS011;11573;51.334;3.244;2023-01-29T12:53:46;25.80;;;17.30;;
22812;SDS011;11573;51.334;3.244;2023-01-29T12:56:28;22.83;;;16.20;;
22812;SDS011;11573;51.334;3.244;2023-01-29T12:59:35;22.92;;;16.08;;
22812;SDS011;11573;51.334;3.244;2023-01-29T13:02:22;21.88;;;16.02;;
22812;SDS011;11573;51.334;3.244;2023-01-29T13:05:25;25.90;;;17.27;;
22812;SDS011;11573;51.334;3.244;2023-01-29T13:08:02;23.77;;;17.48;;
22812;SDS011;11573;51.334;3.244;2023-01-29T13:10:50;25.55;;;16.52;;
22812;SDS011;11573;51.334;3.244;2023-01-29T13:13:27;28.10;;;17.50;;
22812;SDS011;11573;51.334;3.244;2023-01-29T13:15:58;30.00;;;18.05;;
22812;SDS011;11573;51.334;3.244;2023-01-29T13:21:17;23.02;;;17.13;;
22812;SDS011;11573;51.334;3.244;2023-01-29T13:23:56;27.30;;;18.20;;
22812;SDS011;11573;51.334;3.244;2023-01-29T13:26:28;26.85;;;17.60;;
22812;SDS011;11573;51.334;3.244;2023-01-29T13:28:57;26.10;;;17.25;;
22812;SDS011;11573;51.334;3.244;2023-01-29T13:37:08;26.85;;;17.23;;
22812;SDS011;11573;51.334;3.244;2023-01-29T13:39:39;25.30;;;17.80;;
22812;SDS011;11573;51.334;3.244;2023-01-29T13:42:20;24.65;;;18.35;;
22812;SDS011;11573;51.334;3.244;2023-01-29T13:45:08;25.88;;;18.88;;
22812;SDS011;11573;51.334;3.244;2023-01-29T13:51:02;25.77;;;17.67;;
22812;SDS011;11573;51.334;3.244;2023-01-29T13:53:41;27.55;;;18.08;;
22812;SDS011;11573;51.334;3.244;2023-01-29T13:59:03;25.73;;;17.63;;
22812;SDS011;11573;51.334;3.244;2023-01-29T14:04:23;25.23;;;18.08;;
22812;SDS011;11573;51.334;3.244;2023-01-29T14:06:55;26.60;;;17.75;;
22812;SDS011;11573;51.334;3.244;2023-01-29T14:17:14;25.90;;;17.80;;
22812;SDS011;11573;51.334;3.244;2023-01-29T14:19:50;32.22;;;19.98;;
22812;SDS011;11573;51.334;3.244;2023-01-29T14:24:47;26.27;;;18.08;;
22812;SDS011;11573;51.334;3.244;2023-01-29T14:27:20;26.42;;;17.20;;
22812;SDS011;11573;51.334;3.244;2023-01-29T14:29:50;26.67;;;16.48;;
22812;SDS011;11573;51.334;3.244;2023-01-29T14:32:23;25.17;;;18.13;;
22812;SDS011;11573;51.334;3.244;2023-01-29T14:34:57;26.92;;;18.13;;
22812;SDS011;11573;51.334;3.244;2023-01-29T14:39:58;28.17;;;17.45;;
22812;SDS011;11573;51.334;3.244;2023-01-29T14:42:36;23.00;;;17.45;;
22812;SDS011;11573;51.334;3.244;2023-01-29T14:47:58;27.03;;;18.40;;
22812;SDS011;11573;51.334;3.244;2023-01-29T14:58:49;25.73;;;17.70;;
22812;SDS011;11573;51.334;3.244;2023-01-29T15:01:32;26.20;;;17.33;;
22812;SDS011;11573;51.334;3.244;2023-01-29T15:20:32;27.63;;;17.55;;
22812;SDS011;11573;51.334;3.244;2023-01-29T15:23:00;24.17;;;16.33;;
22812;SDS011;11573;51.334;3.244;2023-01-29T15:25:35;28.65;;;17.75;;
22812;SDS011;11573;51.334;3.244;2023-01-29T15:28:11;27.98;;;17.60;;
22812;SDS011;11573;51.334;3.244;2023-01-29T15:30:38;27.95;;;18.55;;
22812;SDS011;11573;51.334;3.244;2023-01-29T15:33:08;30.05;;;18.35;;
22812;SDS011;11573;51.334;3.244;2023-01-29T15:35:37;25.50;;;18.42;;
22812;SDS011;11573;51.334;3.244;2023-01-29T15:38:17;29.25;;;18.38;;
22812;SDS011;11573;51.334;3.244;2023-01-29T15:40:53;24.90;;;18.13;;
22812;SDS011;11573;51.334;3.244;2023-01-29T15:43:34;25.90;;;17.85;;
22812;SDS011;11573;51.334;3.244;2023-01-29T15:46:06;28.15;;;17.90;;
22812;SDS011;11573;51.334;3.244;2023-01-29T15:48:41;25.85;;;17.70;;
22812;SDS011;11573;51.334;3.244;2023-01-29T15:51:13;25.50;;;18.15;;
22812;SDS011;11573;51.334;3.244;2023-01-29T15:53:43;25.55;;;17.45;;
22812;SDS011;11573;51.334;3.244;2023-01-29T15:56:16;26.48;;;17.25;;
22812;SDS011;11573;51.334;3.244;2023-01-29T15:58:47;25.88;;;17.92;;
22812;SDS011;11573;51.334;3.244;2023-01-29T16:01:15;25.73;;;16.90;;
22812;SDS011;11573;51.334;3.244;2023-01-29T16:03:42;29.75;;;18.33;;
22812;SDS011;11573;51.334;3.244;2023-01-29T16:06:10;27.55;;;19.00;;
22812;SDS011;11573;51.334;3.244;2023-01-29T16:08:37;27.55;;;18.60;;
22812;SDS011;11573;51.334;3.244;2023-01-29T16:11:06;27.85;;;19.60;;
22812;SDS011;11573;51.334;3.244;2023-01-29T16:13:35;34.33;;;19.58;;
22812;SDS011;11573;51.334;3.244;2023-01-29T16:18:41;29.33;;;20.13;;
22812;SDS011;11573;51.334;3.244;2023-01-29T16:23:52;31.38;;;19.95;;
22812;SDS011;11573;51.334;3.244;2023-01-29T16:26:25;30.88;;;19.17;;
22812;SDS011;11573;51.334;3.244;2023-01-29T16:28:56;30.13;;;20.58;;
22812;SDS011;11573;51.334;3.244;2023-01-29T16:31:32;29.48;;;19.50;;
22812;SDS011;11573;51.334;3.244;2023-01-29T16:34:05;27.98;;;19.48;;
22812;SDS011;11573;51.334;3.244;2023-01-29T16:36:35;31.58;;;19.95;;
22812;SDS011;11573;51.334;3.244;2023-01-29T16:39:03;35.45;;;22.42;;
22812;SDS011;11573;51.334;3.244;2023-01-29T16:41:38;29.85;;;20.48;;
22812;SDS011;11573;51.334;3.244;2023-01-29T16:46:44;28.95;;;19.90;;
22812;SDS011;11573;51.334;3.244;2023-01-29T16:51:55;31.35;;;19.88;;
22812;SDS011;11573;51.334;3.244;2023-01-29T16:54:42;28.45;;;20.15;;
22812;SDS011;11573;51.334;3.244;2023-01-29T16:57:10;27.25;;;19.13;;
22812;SDS011;11573;51.334;3.244;2023-01-29T16:59:41;28.83;;;19.15;;
22812;SDS011;11573;51.334;3.244;2023-01-29T17:02:30;28.70;;;18.95;;
22812;SDS011;11573;51.334;3.244;2023-01-29T17:05:04;29.52;;;18.85;;
22812;SDS011;11573;51.334;3.244;2023-01-29T17:07:35;24.63;;;17.65;;
22812;SDS011;11573;51.334;3.244;2023-01-29T17:10:03;30.20;;;18.65;;
22812;SDS011;11573;51.334;3.244;2023-01-29T17:12:32;25.70;;;18.17;;
22812;SDS011;11573;51.334;3.244;2023-01-29T17:15:00;28.63;;;17.90;;
22812;SDS011;11573;51.334;3.244;2023-01-29T17:20:01;26.65;;;17.88;;
22812;SDS011;11573;51.334;3.244;2023-01-29T17:22:39;25.30;;;17.98;;
22812;SDS011;11573;51.334;3.244;2023-01-29T17:25:07;27.85;;;18.38;;
22812;SDS011;11573;51.334;3.244;2023-01-29T17:27:39;27.27;;;19.13;;
22812;SDS011;11573;51.334;3.244;2023-01-29T17:30:14;26.45;;;17.00;;
22812;SDS011;11573;51.334;3.244;2023-01-29T17:32:42;24.77;;;16.47;;